Weather Data

Pearl Creek Farm: 8878 N Farm Road 75, Walnut Grove MO 65770

<== Previous Day (Wednesday 22 Aug 2018) | Next Day (Friday 24 Aug 2018) ==>

Summary Precipitation Data For Thursday 23 August 2018

ElementValueUnits
Precipitation0"
Notes(none)
SourcePearl Creek Farm

Summary Temperature Data For Thursday 23 August 2018

ElementValueUnits
High Temperature70 oF
Low Temperature62 oF
Average Temperature66 oF
High Humidity91 %
Low Humidity59 %
Average Humidity83 %
SourceSpringfield-Branson National Airport (SGF)

Detail Temperature Data For Thursday 23 August 2018

Date / TimeTemp (F)RH (%)Dew Pt (F)Report Date / TimeSource
2018-08-23 09:52:00 67 73 58.0 2019-02-02 11:24:24.260017 Springfield-Branson National Airport (SGF)
2018-08-23 10:52:00 65 84 60.0 2019-02-02 11:24:24.260017 Springfield-Branson National Airport (SGF)
2018-08-23 11:52:00 65 87 61.0 2019-02-02 11:24:24.260017 Springfield-Branson National Airport (SGF)
2018-08-23 12:52:00 65 90 62.0 2019-02-02 11:24:24.260017 Springfield-Branson National Airport (SGF)
2018-08-23 13:52:00 65 90 62.0 2019-02-02 11:24:24.260017 Springfield-Branson National Airport (SGF)
2018-08-23 14:52:00 65 90 62.0 2019-02-02 11:24:24.260017 Springfield-Branson National Airport (SGF)
2018-08-23 15:52:00 65 90 62.0 2019-02-02 11:24:24.260017 Springfield-Branson National Airport (SGF)
2018-08-23 00:52:00 62 84 57.0 2019-02-02 11:24:24.260017 Springfield-Branson National Airport (SGF)
2018-08-23 01:52:00 63 78 56.0 2019-02-02 11:24:24.260017 Springfield-Branson National Airport (SGF)
2018-08-23 02:52:00 63 78 56.0 2019-02-02 11:24:24.260017 Springfield-Branson National Airport (SGF)
2018-08-23 03:52:00 64 75 56.0 2019-02-02 11:24:24.260017 Springfield-Branson National Airport (SGF)
2018-08-23 04:52:00 63 78 56.0 2019-02-02 11:24:24.260017 Springfield-Branson National Airport (SGF)
2018-08-23 05:52:00 64 75 56.0 2019-02-02 11:24:24.260017 Springfield-Branson National Airport (SGF)
2018-08-23 06:52:00 65 76 57.0 2019-02-02 11:24:24.260017 Springfield-Branson National Airport (SGF)
2018-08-23 07:52:00 68 65 56.0 2019-02-02 11:24:24.260017 Springfield-Branson National Airport (SGF)
2018-08-23 08:52:00 70 59 55.0 2019-02-02 11:24:24.260017 Springfield-Branson National Airport (SGF)
2018-08-23 16:52:00 66 90 63.0 2019-02-02 11:24:24.260017 Springfield-Branson National Airport (SGF)
2018-08-23 17:52:00 67 91 64.0 2019-02-02 11:24:24.260017 Springfield-Branson National Airport (SGF)
2018-08-23 18:52:00 67 87 63.0 2019-02-02 11:24:24.260017 Springfield-Branson National Airport (SGF)
2018-08-23 19:52:00 67 87 63.0 2019-02-02 11:24:24.260017 Springfield-Branson National Airport (SGF)
2018-08-23 20:52:00 67 87 63.0 2019-02-02 11:24:24.260017 Springfield-Branson National Airport (SGF)
2018-08-23 21:52:00 67 91 64.0 2019-02-02 11:24:24.260017 Springfield-Branson National Airport (SGF)
2018-08-23 22:52:00 67 91 64.0 2019-02-02 11:24:24.260017 Springfield-Branson National Airport (SGF)
2018-08-23 23:52:00 67 91 64.0 2019-02-02 11:24:24.260017 Springfield-Branson National Airport (SGF)

A total of 24 rows are displayed.